Time;durP1;ratioP1;P1;durP2;ratioP2;P2;SDS_P1;SDS_P2;PMS_P1;PMS_P2;Temp;Humidity;BMP_temperature;BMP_pressure;BME280_temperature;BME280_humidity;BME280_pressure;Samples;Min_cycle;Max_cycle;Signal;HPM_P1;HPM_P2
2021/05/25 00:01:30;;;;;;;15.30;13.90;;;;;;;29.39;68.49;100709.50;5074796;27;66065;-36
2021/05/25 00:04:01;;;;;;;16.88;13.80;;;;;;;29.40;68.86;100713.84;5078857;27;68929;-36
2021/05/25 00:06:31;;;;;;;15.43;13.68;;;;;;;29.40;68.62;100715.72;5069706;27;65235;-36
2021/05/25 00:09:02;;;;;;;15.43;13.43;;;;;;;29.41;69.01;100720.09;5072328;27;69993;-36
2021/05/25 00:11:52;;;;;;;22.23;14.18;;;;;;;29.44;69.68;100722.34;5079933;28;64589;-37
2021/05/25 00:14:23;;;;;;;15.15;12.90;;;;;;;29.48;69.47;100720.06;5082004;28;69808;-36
2021/05/25 00:16:53;;;;;;;17.38;14.07;;;;;;;29.49;69.89;100713.63;5066900;27;65329;-37
2021/05/25 00:19:24;;;;;;;22.77;14.27;;;;;;;29.51;69.98;100715.06;5068629;28;69180;-35
2021/05/25 00:21:54;;;;;;;23.90;13.82;;;;;;;29.56;70.05;100722.50;5075520;27;66536;-36
2021/05/25 00:24:25;;;;;;;16.95;13.65;;;;;;;29.54;70.20;100716.50;5077682;27;69994;-37
2021/05/25 00:27:09;;;;;;;50.92;13.98;;;;;;;29.60;70.18;100723.75;5077473;27;65560;-37
2021/05/25 00:29:39;;;;;;;46.10;14.35;;;;;;;29.67;69.75;100729.13;5072378;28;69820;-37
2021/05/25 00:32:09;;;;;;;31.92;14.23;;;;;;;29.71;69.85;100725.81;5063641;27;66550;-38
2021/05/25 00:34:39;;;;;;;30.85;15.02;;;;;;;29.69;69.89;100708.97;5087195;27;69111;-38
2021/05/25 00:37:10;;;;;;;38.55;14.55;;;;;;;29.77;69.93;100724.09;5074423;27;65257;-37
2021/05/25 00:39:40;;;;;;;29.17;14.73;;;;;;;29.71;69.63;100720.41;5056774;28;70027;-35
2021/05/25 00:42:11;;;;;;;25.85;14.27;;;;;;;29.82;69.67;100754.03;5058797;28;66276;-37
2021/05/25 00:44:42;;;;;;;28.40;13.88;;;;;;;29.83;69.84;100755.69;5076168;27;70962;-40
2021/05/25 00:47:12;;;;;;;20.67;12.52;;;;;;;29.82;69.13;100760.25;5077258;28;65995;-38
2021/05/25 00:49:42;;;;;;;19.50;13.23;;;;;;;29.82;69.03;100754.84;5069022;27;70079;-37
2021/05/25 00:52:12;;;;;;;22.27;13.45;;;;;;;29.88;69.18;100773.97;5073925;27;65354;-39
2021/05/25 00:54:43;;;;;;;18.08;12.40;;;;;;;29.82;68.89;100776.50;5070033;27;69865;-37
2021/05/25 00:57:13;;;;;;;18.58;12.48;;;;;;;29.89;69.53;100814.31;5068281;27;65668;-38
2021/05/25 00:59:44;;;;;;;13.98;11.70;;;;;;;29.90;69.06;100840.31;5056112;27;68946;-37
2021/05/25 01:02:14;;;;;;;31.50;11.85;;;;;;;29.85;68.89;100834.72;5069849;28;66070;-37
2021/05/25 01:04:44;;;;;;;15.73;12.23;;;;;;;29.83;69.36;100826.81;5047501;28;69095;-36
2021/05/25 01:07:14;;;;;;;12.40;11.18;;;;;;;29.86;69.39;100835.53;5059930;27;65285;-35
2021/05/25 01:09:45;;;;;;;17.63;10.88;;;;;;;29.86;69.50;100830.13;5064440;27;69690;-36
2021/05/25 01:12:15;;;;;;;15.57;11.00;;;;;;;29.88;68.84;100828.06;5063011;27;65227;-36
2021/05/25 01:14:53;;;;;;;14.23;9.82;;;;;;;29.79;69.25;100803.97;5056599;28;70184;-35
2021/05/25 01:17:24;;;;;;;12.05;9.43;;;;;;;29.79;68.73;100820.19;5066974;28;66672;-38
2021/05/25 01:19:55;;;;;;;10.68;9.15;;;;;;;29.80;68.95;100826.41;5067047;27;70989;-37
2021/05/25 01:22:25;;;;;;;15.98;9.38;;;;;;;29.77;69.22;100832.25;5074476;27;65287;-36
2021/05/25 01:24:59;;;;;;;12.02;9.30;;;;;;;29.80;68.73;100832.66;5066970;28;69487;-38
2021/05/25 01:27:30;;;;;;;9.60;8.68;;;;;;;29.69;69.37;100819.81;5065237;27;66024;-37
2021/05/25 01:30:04;;;;;;;9.10;8.32;;;;;;;29.78;69.03;100840.16;5071483;28;69349;-38
2021/05/25 01:32:35;;;;;;;20.70;8.95;;;;;;;29.77;68.72;100867.41;5071861;27;65329;-37
2021/05/25 01:35:06;;;;;;;8.82;8.07;;;;;;;29.76;68.84;100882.81;5062717;28;69764;-34
2021/05/25 01:37:36;;;;;;;9.77;8.38;;;;;;;29.72;69.35;100881.56;5072542;27;66885;-36
2021/05/25 01:40:08;;;;;;;8.43;7.68;;;;;;;29.75;68.91;100900.03;5065736;27;69193;-37
2021/05/25 01:42:38;;;;;;;;;;;;;;;29.45;69.78;100894.28;5074264;27;66022;-38
2021/05/25 01:45:12;;;;;;;8.07;7.10;;;;;;;29.70;69.36;100894.47;5061314;28;69595;-37
2021/05/25 01:47:43;;;;;;;8.75;7.82;;;;;;;29.66;68.64;100878.88;5074760;27;65253;-38
2021/05/25 01:50:17;;;;;;;8.13;7.33;;;;;;;29.69;69.21;100890.09;5065666;28;70657;-39
2021/05/25 01:53:01;;;;;;;8.02;7.53;;;;;;;29.71;69.12;100882.59;5055599;28;66473;-37
2021/05/25 01:55:39;;;;;;;8.18;7.53;;;;;;;29.65;69.10;100894.28;5071247;28;70627;-37
2021/05/25 01:58:21;;;;;;;7.93;7.07;;;;;;;29.69;69.17;100890.09;5057309;27;66324;-38
2021/05/25 02:00:58;;;;;;;8.27;7.68;;;;;;;29.39;69.18;100850.03;5062376;28;69865;-38
2021/05/25 02:03:29;;;;;;;7.75;7.15;;;;;;;29.54;69.26;100882.19;5065390;27;65990;-36
2021/05/25 02:06:00;;;;;;;8.10;7.47;;;;;;;29.60;69.37;100897.56;5056972;28;70234;-37
2021/05/25 02:08:30;;;;;;;7.07;6.20;;;;;;;29.65;69.20;100907.78;5055404;28;66552;-37
2021/05/25 02:11:03;;;;;;;7.30;6.80;;;;;;;29.58;68.63;100893.41;5060158;28;69822;-38
2021/05/25 02:13:37;;;;;;;7.65;7.00;;;;;;;29.33;69.11;100848.13;5072125;27;66181;-38
2021/05/25 02:16:12;;;;;;;7.72;6.93;;;;;;;29.28;68.76;100834.47;5070961;27;69390;-37
2021/05/25 02:18:46;;;;;;;6.75;6.25;;;;;;;29.59;68.96;100890.50;5062983;28;66306;-37
2021/05/25 02:21:19;;;;;;;7.05;6.45;;;;;;;29.59;68.58;100879.69;5059570;27;70518;-37
2021/05/25 02:23:52;;;;;;;6.93;6.20;;;;;;;29.60;69.26;100891.34;5075060;28;65240;-37
2021/05/25 02:26:24;;;;;;;;;;;;;;;29.33;70.21;100890.53;5074997;27;70006;-36
2021/05/25 02:28:55;;;;;;;6.50;6.00;;;;;;;29.56;68.87;100890.94;5076689;27;65128;-37
2021/05/25 02:31:27;;;;;;;;;;;;;;;29.30;70.06;100899.91;5076867;27;69288;-36
2021/05/25 02:33:58;;;;;;;5.90;5.60;;;;;;;29.54;69.25;100903.00;5074619;27;65460;-37
2021/05/25 02:36:28;;;;;;;6.45;5.85;;;;;;;29.55;69.18;100902.78;5076626;27;69950;-37
2021/05/25 02:39:06;;;;;;;6.70;6.18;;;;;;;29.57;68.66;100905.28;5076020;27;65956;-37
2021/05/25 02:41:39;;;;;;;6.00;5.60;;;;;;;29.52;69.05;100891.56;5074509;27;70079;-37
2021/05/25 02:44:09;;;;;;;6.80;6.30;;;;;;;29.58;69.16;100912.34;5075535;27;65362;-37
2021/05/25 02:46:42;;;;;;;5.63;5.22;;;;;;;29.56;68.72;100917.09;5074400;27;70206;-35
2021/05/25 02:49:14;;;;;;;6.15;5.68;;;;;;;29.54;68.54;100924.63;5076072;27;66012;-36
2021/05/25 02:51:44;;;;;;;6.40;6.00;;;;;;;29.56;68.83;100938.72;5056479;28;69768;-36
2021/05/25 02:54:17;;;;;;;6.55;6.05;;;;;;;29.55;69.21;100928.97;5070693;27;66235;-36
2021/05/25 02:56:47;;;;;;;6.28;5.88;;;;;;;29.53;68.68;100934.59;5071850;28;69688;-36
2021/05/25 02:59:17;;;;;;;7.03;6.40;;;;;;;29.53;68.70;100934.59;5073861;27;66175;-37
2021/05/25 03:01:48;;;;;;;7.65;7.05;;;;;;;29.50;69.15;100942.28;5055734;27;69916;-36
2021/05/25 03:04:22;;;;;;;8.05;7.55;;;;;;;29.50;69.25;100944.97;5054421;28;65603;-36
2021/05/25 03:06:55;;;;;;;8.98;8.30;;;;;;;29.50;68.80;100948.50;5054434;28;70229;-37
2021/05/25 03:09:32;;;;;;;7.82;7.22;;;;;;;29.43;69.42;100930.66;5056347;28;66345;-36
2021/05/25 03:12:05;;;;;;;7.38;6.85;;;;;;;29.39;69.12;100936.50;5053885;28;69214;-36
2021/05/25 03:14:36;;;;;;;7.90;7.35;;;;;;;29.45;69.14;100939.38;5052190;28;65042;-36
2021/05/25 03:17:10;;;;;;;7.72;7.13;;;;;;;29.48;69.17;100930.88;5053548;28;69513;-36
2021/05/25 03:19:41;;;;;;;7.50;6.80;;;;;;;29.43;69.22;100912.56;5053562;28;66682;-36
2021/05/25 03:22:12;;;;;;;7.15;6.65;;;;;;;29.38;68.89;100888.03;5052087;28;69920;-37
2021/05/25 03:24:44;;;;;;;6.90;6.40;;;;;;;29.38;69.31;100883.47;5055020;28;66137;-35
2021/05/25 03:27:14;;;;;;;7.57;6.65;;;;;;;29.42;69.52;100883.03;5051811;28;69064;-35
2021/05/25 03:29:46;;;;;;;7.13;6.45;;;;;;;29.45;68.86;100888.88;5052752;28;66516;-36
2021/05/25 03:32:21;;;;;;;7.72;6.93;;;;;;;29.37;68.89;100871.00;5053852;28;70232;-35
2021/05/25 03:34:51;;;;;;;7.68;6.63;;;;;;;29.45;69.05;100882.63;5065951;28;66123;-36
2021/05/25 03:37:31;;;;;;;6.43;5.97;;;;;;;29.43;69.35;100882.03;5064626;28;69970;-35
2021/05/25 03:40:07;;;;;;;7.50;6.70;;;;;;;29.42;69.51;100877.63;5073599;27;65398;-35
2021/05/25 03:42:39;;;;;;;8.68;6.32;;;;;;;29.44;69.18;100870.16;5072987;27;69748;-36
2021/05/25 03:45:09;;;;;;;6.78;6.28;;;;;;;29.43;69.44;100866.63;5074364;27;67277;-36
2021/05/25 03:47:42;;;;;;;6.30;5.90;;;;;;;29.44;69.65;100862.06;5072904;27;70387;-37
2021/05/25 03:50:14;;;;;;;7.07;6.40;;;;;;;29.43;69.58;100858.53;5071900;28;65157;-35
2021/05/25 03:52:52;;;;;;;6.72;6.22;;;;;;;29.45;69.05;100863.69;5072699;28;70369;-36
2021/05/25 03:55:42;;;;;;;6.90;6.50;;;;;;;29.11;68.85;100809.75;5069458;27;66255;-36
2021/05/25 04:01:08;;;;;;;6.65;6.25;;;;;;;29.44;69.19;100862.06;5062934;28;66271;-36
2021/05/25 04:03:54;;;;;;;6.82;6.18;;;;;;;29.02;69.09;100791.22;5071789;28;68724;-36
2021/05/25 04:06:25;;;;;;;6.80;6.22;;;;;;;29.44;68.96;100853.94;5074978;27;66444;-36
2021/05/25 04:09:02;;;;;;;6.28;5.75;;;;;;;29.43;69.00;100853.13;5063873;28;69635;-36
2021/05/25 04:11:33;;;;;;;6.43;6.00;;;;;;;29.44;69.58;100859.34;5062128;27;66686;-35
2021/05/25 04:14:05;;;;;;;6.63;6.07;;;;;;;29.45;69.59;100855.59;5064313;28;70343;-35
2021/05/25 04:16:36;;;;;;;6.05;5.60;;;;;;;29.13;69.62;100804.13;5075639;27;66915;-36
2021/05/25 04:19:09;;;;;;;6.50;6.07;;;;;;;29.43;69.01;100846.91;5076719;28;69098;-35
2021/05/25 04:21:39;;;;;;;6.15;5.65;;;;;;;29.46;69.49;100851.88;5074746;27;65347;-37
2021/05/25 04:24:10;;;;;;;5.97;5.57;;;;;;;29.42;69.45;100850.63;5075668;27;69829;-37
2021/05/25 04:26:41;;;;;;;6.45;5.90;;;;;;;29.47;68.87;100864.31;5074951;28;65852;-37
2021/05/25 04:29:11;;;;;;;5.97;5.47;;;;;;;29.46;69.14;100857.28;5077112;27;70389;-36
2021/05/25 04:31:45;;;;;;;6.22;5.63;;;;;;;29.45;69.43;100858.28;5075022;27;66026;-36
2021/05/25 04:34:18;;;;;;;6.05;5.47;;;;;;;29.48;68.99;100871.41;5073134;28;70131;-36
2021/05/25 04:36:49;;;;;;;6.03;5.63;;;;;;;29.48;69.00;100876.81;5067792;28;65905;-37
2021/05/25 04:39:22;;;;;;;5.80;5.40;;;;;;;29.48;69.42;100877.66;5074740;27;69007;-36
2021/05/25 04:41:53;;;;;;;6.38;5.78;;;;;;;29.48;69.50;100874.13;5075183;27;65233;-37
2021/05/25 04:44:23;;;;;;;5.95;5.38;;;;;;;29.49;69.04;100873.06;5056427;28;69193;-36
2021/05/25 04:46:58;;;;;;;5.28;4.88;;;;;;;29.49;69.03;100881.16;5076782;27;66885;-36
2021/05/25 04:49:32;;;;;;;5.90;5.03;;;;;;;29.44;69.28;100887.19;5075144;28;69957;-35
2021/05/25 04:52:05;;;;;;;5.70;5.20;;;;;;;29.49;69.67;100883.88;5073062;27;67011;-35
2021/05/25 04:54:38;;;;;;;5.57;5.18;;;;;;;29.42;69.44;100872.22;5075100;28;70065;-35
2021/05/25 04:57:10;;;;;;;5.57;5.18;;;;;;;29.50;69.41;100885.53;5075437;27;65874;-35
2021/05/25 04:59:42;;;;;;;5.13;4.82;;;;;;;29.49;69.07;100883.88;5075816;27;68736;-36
2021/05/25 05:02:20;;;;;;;5.70;5.30;;;;;;;29.49;69.15;100881.16;5065871;27;65947;-37
2021/05/25 05:04:50;;;;;;;6.57;5.70;;;;;;;29.49;69.22;100870.38;5072066;28;69843;-35
2021/05/25 05:07:21;;;;;;;5.30;4.90;;;;;;;29.50;69.32;100863.91;5064276;28;66100;-36
2021/05/25 05:09:51;;;;;;;5.65;5.18;;;;;;;29.50;69.59;100858.50;5075739;27;69981;-36
2021/05/25 05:12:25;;;;;;;5.25;4.80;;;;;;;29.49;69.09;100854.97;5073805;27;66402;-36
2021/05/25 05:14:56;;;;;;;6.22;5.22;;;;;;;29.50;69.59;100861.19;5075420;27;69288;-37
2021/05/25 05:17:28;;;;;;;5.20;4.80;;;;;;;29.50;69.84;100858.50;5072961;27;68569;-36
2021/05/25 05:19:59;;;;;;;5.22;4.78;;;;;;;29.49;69.13;100862.25;5074710;28;70204;-37
2021/05/25 05:22:34;;;;;;;5.70;4.97;;;;;;;29.49;69.77;100862.25;5062203;27;66106;-36
2021/05/25 05:25:10;;;;;;;6.75;5.05;;;;;;;29.51;69.58;100865.59;5075137;27;69949;-37
2021/05/25 05:27:42;;;;;;;5.35;4.85;;;;;;;29.49;69.26;100854.16;5073491;27;65793;-36
2021/05/25 05:30:15;;;;;;;5.50;5.00;;;;;;;29.43;69.29;100855.81;5072403;27;71639;-39
2021/05/25 05:32:48;;;;;;;5.10;4.65;;;;;;;29.49;69.23;100870.38;5045220;27;66623;-37
2021/05/25 05:35:21;;;;;;;4.95;4.65;;;;;;;29.49;69.15;100870.38;5076665;27;69961;-36
2021/05/25 05:38:03;;;;;;;5.50;5.13;;;;;;;29.47;69.41;100867.03;5066212;27;66603;-36
2021/05/25 05:40:37;;;;;;;4.63;4.22;;;;;;;29.47;69.26;100870.56;5055034;28;71656;-36
2021/05/25 05:43:10;;;;;;;4.90;4.60;;;;;;;29.47;69.70;100864.31;5061166;28;66019;-36
2021/05/25 05:45:43;;;;;;;5.28;4.88;;;;;;;29.46;69.71;100873.50;5069746;27;69698;-36
2021/05/25 05:48:17;;;;;;;5.25;4.85;;;;;;;29.47;69.24;100875.13;5063996;28;66003;-36
2021/05/25 05:50:52;;;;;;;4.90;4.53;;;;;;;29.39;69.75;100862.69;5070667;27;69630;-36
2021/05/25 05:53:27;;;;;;;4.93;4.63;;;;;;;29.45;69.21;100871.81;5062042;27;65533;-35
2021/05/25 05:55:57;;;;;;;4.63;4.22;;;;;;;29.46;69.76;100873.50;5073962;27;70150;-36
2021/05/25 05:58:33;;;;;;;5.00;4.60;;;;;;;29.45;69.38;100877.22;5061761;27;65329;-35
2021/05/25 06:01:05;;;;;;;4.70;4.38;;;;;;;29.44;69.44;100867.47;5076837;27;69906;-36
2021/05/25 06:03:36;;;;;;;4.20;3.90;;;;;;;29.43;69.72;100869.34;5071643;27;65924;-35
2021/05/25 06:06:08;;;;;;;4.65;4.35;;;;;;;29.45;69.82;100861.00;5070321;28;69790;-36
2021/05/25 06:08:42;;;;;;;4.47;4.05;;;;;;;29.44;69.66;100853.94;5073177;27;65850;-36
2021/05/25 06:11:16;;;;;;;4.40;4.10;;;;;;;29.43;69.25;100844.19;5061352;28;70559;-36
2021/05/25 06:13:46;;;;;;;4.30;3.90;;;;;;;29.40;69.29;100843.56;5061462;28;65212;-36
2021/05/25 06:16:25;;;;;;;4.35;4.05;;;;;;;29.40;69.66;100826.53;5058712;28;69791;-36
2021/05/25 06:18:56;;;;;;;4.25;4.00;;;;;;;29.38;69.71;100813.22;5068933;28;66473;-37
2021/05/25 06:21:28;;;;;;;3.97;3.67;;;;;;;29.38;69.57;100809.69;5066864;28;69402;-36
2021/05/25 06:23:59;;;;;;;3.65;3.45;;;;;;;29.39;69.60;100804.09;5065985;27;66508;-36
2021/05/25 06:26:30;;;;;;;4.07;3.28;;;;;;;29.38;69.63;100802.41;5063140;28;70584;-36
2021/05/25 06:29:05;;;;;;;4.07;3.78;;;;;;;29.11;69.41;100741.38;5066313;28;65881;-37
2021/05/25 06:31:38;;;;;;;3.58;3.38;;;;;;;29.39;69.16;100778.91;5062454;28;69188;-36
2021/05/25 06:34:09;;;;;;;3.55;3.25;;;;;;;29.37;69.17;100781.84;5074460;27;67173;-36
2021/05/25 06:36:42;;;;;;;3.78;3.47;;;;;;;29.37;68.85;100771.03;5066506;28;69826;-36
2021/05/25 06:39:15;;;;;;;3.58;3.28;;;;;;;29.37;68.99;100762.94;5074419;27;66082;-37
2021/05/25 06:41:46;;;;;;;3.78;3.47;;;;;;;29.37;69.34;100762.94;5053298;28;69517;-36
2021/05/25 06:44:20;;;;;;;3.35;3.05;;;;;;;29.37;69.44;100757.53;5054343;27;65940;-38
2021/05/25 06:47:04;;;;;;;3.90;3.60;;;;;;;29.35;69.60;100751.50;5046167;28;69538;-36
2021/05/25 06:49:36;;;;;;;5.25;3.22;;;;;;;29.34;68.98;100749.03;5052678;28;66421;-38
2021/05/25 06:52:10;;;;;;;3.13;2.90;;;;;;;29.33;69.36;100740.06;5071567;28;69830;-37
2021/05/25 06:54:42;;;;;;;3.75;3.50;;;;;;;29.31;68.99;100730.50;5075902;27;65927;-38
2021/05/25 06:57:14;;;;;;;3.33;3.13;;;;;;;29.31;69.13;100725.97;5073565;27;70393;-36
2021/05/25 06:59:44;;;;;;;2.67;2.58;;;;;;;29.33;69.34;100723.84;5074212;28;65903;-37
2021/05/25 07:02:23;;;;;;;3.25;3.05;;;;;;;29.22;69.42;100708.31;5052257;28;69816;-37
2021/05/25 07:05:03;;;;;;;3.35;3.15;;;;;;;29.31;69.41;100723.25;5065976;28;65411;-36
2021/05/25 07:07:35;;;;;;;2.97;2.78;;;;;;;29.27;69.69;100713.06;5072485;27;69807;-37
2021/05/25 07:10:09;;;;;;;2.95;2.75;;;;;;;29.31;69.34;100720.56;5064474;27;65830;-36
2021/05/25 07:12:40;;;;;;;5.30;3.50;;;;;;;29.31;69.04;100714.28;5069539;28;69269;-36
2021/05/25 07:15:12;;;;;;;3.58;3.28;;;;;;;29.31;69.37;100709.75;5064962;28;66282;-35
2021/05/25 07:17:59;;;;;;;3.70;3.05;;;;;;;29.30;69.31;100696.44;5069887;27;69850;-37
2021/05/25 07:20:34;;;;;;;3.05;2.85;;;;;;;29.30;69.44;100702.66;5057847;28;66016;-36
2021/05/25 07:23:07;;;;;;;3.22;2.92;;;;;;;29.29;69.40;100701.03;5058219;28;71661;-36
2021/05/25 07:25:42;;;;;;;3.17;2.60;;;;;;;29.22;68.93;100684.00;5053660;28;66646;-36
2021/05/25 07:28:13;;;;;;;3.05;2.85;;;;;;;29.29;69.11;100698.31;5052969;28;70956;-37
2021/05/25 07:30:48;;;;;;;2.90;2.70;;;;;;;29.27;69.17;100697.69;5060063;27;66872;-36
2021/05/25 07:33:26;;;;;;;3.63;3.15;;;;;;;29.28;69.22;100687.72;5063896;28;69500;-36
2021/05/25 07:35:57;;;;;;;4.22;3.40;;;;;;;29.15;69.13;100667.00;5064173;28;66198;-40
2021/05/25 07:38:28;;;;;;;2.88;2.67;;;;;;;29.28;69.43;100682.31;5055751;27;69190;-36
2021/05/25 07:41:00;;;;;;;2.83;2.63;;;;;;;29.02;68.90;100631.91;5067062;28;65225;-37
2021/05/25 07:43:33;;;;;;;4.93;2.65;;;;;;;29.15;68.72;100648.91;5058602;28;69948;-36
2021/05/25 07:46:07;;;;;;;2.42;2.25;;;;;;;29.27;68.90;100670.69;5077277;27;65976;-36
2021/05/25 07:48:41;;;;;;;2.90;2.70;;;;;;;29.24;68.83;100654.91;5071579;27;70103;-37
2021/05/25 07:51:13;;;;;;;2.60;2.40;;;;;;;29.28;69.21;100655.28;5062317;28;66931;-36
2021/05/25 07:53:48;;;;;;;2.80;2.60;;;;;;;29.27;68.67;100651.75;5058559;28;69366;-36
2021/05/25 07:56:20;;;;;;;2.75;2.55;;;;;;;29.27;69.12;100649.06;5073970;27;66294;-36
2021/05/25 07:58:53;;;;;;;3.25;2.95;;;;;;;29.25;69.05;100645.75;5069357;27;70299;-36
2021/05/25 08:01:26;;;;;;;2.90;2.70;;;;;;;29.27;68.70;100646.38;5061731;27;66036;-36
2021/05/25 08:04:00;;;;;;;2.83;2.63;;;;;;;29.28;68.77;100641.78;5073895;27;69538;-36
2021/05/25 08:06:36;;;;;;;2.60;2.40;;;;;;;29.28;68.94;100639.09;5065486;27;66186;-37
2021/05/25 08:09:08;;;;;;;1.95;1.85;;;;;;;29.22;68.81;100619.16;5067655;27;69593;-37
2021/05/25 08:11:39;;;;;;;2.57;2.37;;;;;;;28.93;68.65;100572.75;5074445;27;66009;-36
2021/05/25 08:14:12;;;;;;;2.20;2.10;;;;;;;29.28;69.00;100631.84;5069482;27;69622;-37
2021/05/25 08:16:44;;;;;;;2.80;2.60;;;;;;;29.26;68.95;100620.41;5067097;28;65962;-37
2021/05/25 08:19:28;;;;;;;2.58;2.40;;;;;;;29.27;68.94;100616.66;5070886;27;70021;-39
2021/05/25 08:22:00;;;;;;;2.38;2.17;;;;;;;29.14;68.79;100589.69;5056790;28;65176;-36
2021/05/25 08:24:48;;;;;;;2.42;2.22;;;;;;;29.26;68.69;100615.00;5073969;27;70028;-38
2021/05/25 08:27:19;;;;;;;2.33;2.13;;;;;;;29.26;69.28;100606.91;5058224;28;66376;-36
2021/05/25 08:30:19;;;;;;;2.67;2.47;;;;;;;29.27;69.27;100611.25;5057311;28;69138;-37
2021/05/25 08:32:51;;;;;;;2.58;2.38;;;;;;;29.27;69.16;100605.00;5070635;27;66564;-38
2021/05/25 08:35:26;;;;;;;2.78;2.58;;;;;;;29.14;68.98;100589.69;5061416;28;69391;-40
2021/05/25 08:37:59;;;;;;;2.85;2.65;;;;;;;29.23;68.78;100593.81;5067833;27;66143;-37
2021/05/25 08:40:33;;;;;;;2.45;2.35;;;;;;;29.27;69.22;100602.31;5055948;28;69946;-36
2021/05/25 08:43:07;;;;;;;3.25;2.30;;;;;;;29.26;69.22;100600.66;5055832;28;66962;-37
2021/05/25 08:45:39;;;;;;;2.53;2.33;;;;;;;29.25;68.77;100596.28;5070583;27;69990;-37
2021/05/25 08:48:11;;;;;;;2.80;2.33;;;;;;;28.87;69.22;100535.81;5056657;28;65266;-36
2021/05/25 08:51:00;;;;;;;2.45;2.35;;;;;;;29.27;69.12;100610.41;5055642;28;69845;-37
2021/05/25 08:53:31;;;;;;;2.80;2.60;;;;;;;29.25;69.21;100599.81;5071355;28;66021;-37
2021/05/25 08:56:05;;;;;;;2.78;2.58;;;;;;;28.99;69.07;100554.03;5065259;28;70735;-37
2021/05/25 08:58:39;;;;;;;2.65;2.45;;;;;;;29.16;69.09;100584.91;5060803;27;65298;-36
2021/05/25 09:01:11;;;;;;;2.50;2.30;;;;;;;29.22;68.71;100602.13;5058160;28;69920;-37
2021/05/25 09:04:15;;;;;;;2.37;2.20;;;;;;;29.12;69.00;100608.84;5068172;28;66069;-38
2021/05/25 09:06:50;;;;;;;3.20;3.00;;;;;;;28.85;69.17;100543.28;5043522;28;70476;-36
2021/05/25 09:09:26;;;;;;;4.75;3.10;;;;;;;29.12;69.08;100598.03;5066808;28;66489;-37
2021/05/25 09:14:49;;;;;;;3.70;3.28;;;;;;;29.21;68.96;100622.91;5066555;27;66343;-37
2021/05/25 09:17:25;;;;;;;3.00;2.80;;;;;;;29.27;69.03;100623.94;5072427;28;70121;-36
2021/05/25 09:19:58;;;;;;;3.55;3.35;;;;;;;29.25;68.85;100626.84;5063405;27;65925;-37
2021/05/25 09:22:36;;;;;;;3.22;3.00;;;;;;;29.27;69.08;100632.03;5072802;28;69047;-37
2021/05/25 09:25:16;;;;;;;3.65;3.45;;;;;;;29.26;68.66;100628.50;5073721;27;66188;-39
2021/05/25 09:28:07;;;;;;;3.25;3.05;;;;;;;29.27;68.64;100643.66;5056828;28;69857;-36
2021/05/25 09:30:41;;;;;;;3.20;3.00;;;;;;;29.25;69.17;100634.94;5067233;28;65643;-36
2021/05/25 09:33:12;;;;;;;3.60;3.40;;;;;;;29.26;69.05;100642.00;5054560;28;69483;-36
2021/05/25 09:35:47;;;;;;;3.20;2.95;;;;;;;29.25;69.04;100643.03;5060332;28;65685;-36
2021/05/25 09:38:28;;;;;;;3.75;3.55;;;;;;;29.22;69.01;100646.19;5069529;27;69838;-36
2021/05/25 09:41:01;;;;;;;3.13;2.92;;;;;;;29.18;68.52;100639.56;5067150;28;65476;-36
2021/05/25 09:43:32;;;;;;;;;;;;;;;29.02;69.55;100648.09;5061515;27;69523;-36
2021/05/25 09:46:17;;;;;;;4.10;3.80;;;;;;;28.90;69.14;100594.78;5064557;28;66235;-36
2021/05/25 09:48:48;;;;;;;3.50;3.20;;;;;;;29.24;69.10;100649.50;5076434;27;68962;-35
2021/05/25 09:51:29;;;;;;;3.70;3.50;;;;;;;28.90;68.86;100594.78;5059556;27;65006;-37
2021/05/25 09:54:02;;;;;;;4.15;3.85;;;;;;;29.25;69.10;100653.84;5070571;27;69202;-36
2021/05/25 09:56:35;;;;;;;4.00;3.70;;;;;;;29.26;68.50;100643.91;5073463;28;65884;-37
2021/05/25 09:59:05;;;;;;;4.20;3.97;;;;;;;29.25;68.67;100645.75;5054721;27;69986;-36
2021/05/25 10:01:37;;;;;;;4.40;4.10;;;;;;;28.87;69.08;100589.78;5059849;28;66034;-36
2021/05/25 10:04:16;;;;;;;4.47;4.13;;;;;;;29.26;68.67;100657.41;5070904;28;69833;-37
2021/05/25 10:06:48;;;;;;;4.63;4.32;;;;;;;29.25;68.77;100653.84;5059189;27;66066;-36
2021/05/25 10:09:24;;;;;;;4.72;4.43;;;;;;;29.26;68.95;100658.22;5072614;28;69862;-38
2021/05/25 10:11:55;;;;;;;4.80;4.50;;;;;;;29.25;68.92;100667.34;5064716;28;66515;-36
2021/05/25 10:14:25;;;;;;;4.03;3.72;;;;;;;29.17;69.15;100659.53;5067895;28;69130;-37
2021/05/25 10:16:58;;;;;;;4.65;4.35;;;;;;;29.26;68.69;100662.81;5060254;27;65397;-37
2021/05/25 10:19:28;;;;;;;5.03;4.72;;;;;;;28.94;68.71;100620.28;5067241;27;70741;-38
2021/05/25 10:22:00;;;;;;;5.55;5.10;;;;;;;29.25;69.06;100670.06;5056932;28;66275;-36
2021/05/25 10:24:30;;;;;;;6.28;5.88;;;;;;;29.15;68.60;100662.41;5062086;28;71433;-36
2021/05/25 10:27:03;;;;;;;5.93;5.53;;;;;;;29.23;69.11;100685.66;5060800;27;66671;-36
2021/05/25 10:29:35;;;;;;;6.88;6.13;;;;;;;29.07;69.16;100649.16;5060630;28;69286;-36
2021/05/25 10:32:06;;;;;;;5.93;5.53;;;;;;;29.24;68.78;100686.50;5071929;27;66068;-36
2021/05/25 10:34:36;;;;;;;6.90;6.15;;;;;;;29.24;68.59;100687.31;5057136;27;70106;-37
2021/05/25 10:37:14;;;;;;;6.30;5.72;;;;;;;28.83;68.60;100618.25;5054405;28;65936;-37
2021/05/25 10:39:46;;;;;;;7.38;6.85;;;;;;;29.20;68.89;100690.66;5056714;28;70049;-37
2021/05/25 10:42:24;;;;;;;6.93;6.50;;;;;;;29.23;68.98;100696.47;5066684;28;65843;-36
2021/05/25 10:45:00;;;;;;;7.30;6.85;;;;;;;29.24;69.21;100708.94;5063043;27;69969;-38
2021/05/25 10:47:37;;;;;;;7.82;6.85;;;;;;;29.24;68.71;100708.09;5057337;28;65174;-36
2021/05/25 10:52:59;;;;;;;7.32;6.78;;;;;;;29.22;68.68;100700.19;5069096;28;65790;-37
2021/05/25 10:55:44;;;;;;;7.88;7.28;;;;;;;28.72;68.60;100627.00;5070582;27;69621;-36
2021/05/25 10:58:18;;;;;;;7.68;6.93;;;;;;;29.24;69.06;100705.41;5070131;28;66863;-37
2021/05/25 11:00:48;;;;;;;7.53;6.93;;;;;;;29.23;68.64;100709.16;5062589;28;70045;-36
2021/05/25 11:03:28;;;;;;;8.48;7.88;;;;;;;29.22;68.67;100707.47;5064411;27;66500;-36
2021/05/25 11:06:03;;;;;;;9.20;8.50;;;;;;;29.13;68.69;100699.63;5073720;28;69842;-36
2021/05/25 11:08:38;;;;;;;8.68;8.07;;;;;;;29.13;68.44;100715.00;5064505;28;65548;-36
2021/05/25 11:11:11;;;;;;;9.32;8.65;;;;;;;29.21;68.72;100722.88;5071258;27;69954;-35
2021/05/25 11:13:53;;;;;;;9.02;8.23;;;;;;;29.10;68.95;100707.31;5072789;27;65628;-36
2021/05/25 11:16:33;;;;;;;10.60;9.50;;;;;;;28.88;68.85;100671.63;5073850;27;69961;-36
2021/05/25 11:19:10;;;;;;;9.40;8.63;;;;;;;29.20;68.92;100734.72;5067529;28;65266;-37
2021/05/25 11:22:14;;;;;;;9.90;9.20;;;;;;;29.19;68.66;100738.44;5064253;28;69768;-35
2021/05/25 11:25:01;;;;;;;10.15;9.55;;;;;;;28.83;68.88;100685.75;5069306;28;65173;-36
2021/05/25 11:27:47;;;;;;;11.45;10.35;;;;;;;29.20;69.00;100745.53;5069978;27;70076;-36
2021/05/25 11:30:32;;;;;;;10.68;9.93;;;;;;;29.18;68.76;100753.00;5069708;28;65850;-37
2021/05/25 11:33:03;;;;;;;11.40;10.48;;;;;;;29.07;68.98;100737.44;5073614;28;69846;-37
2021/05/25 11:35:35;;;;;;;10.77;10.02;;;;;;;29.18;68.72;100755.72;5071521;28;64533;-36
2021/05/25 11:38:06;;;;;;;11.48;10.15;;;;;;;29.12;68.60;100753.88;5061650;28;70545;-37
2021/05/25 11:40:38;;;;;;;10.77;10.02;;;;;;;29.21;69.03;100763.38;5064977;28;65554;-35
2021/05/25 11:43:11;;;;;;;17.10;15.10;;;;;;;29.23;69.61;100761.31;5064686;27;71134;-36
2021/05/25 11:45:41;;;;;;;18.60;16.83;;;;;;;28.96;69.79;100718.13;5064080;27;66125;-35
2021/05/25 11:48:23;;;;;;;20.30;17.00;;;;;;;29.30;70.32;100777.50;5061202;27;70662;-35
2021/05/25 11:51:09;;;;;;;19.95;16.90;;;;;;;29.27;70.34;100767.94;5061864;28;66623;-36
2021/05/25 11:53:39;;;;;;;19.80;17.13;;;;;;;29.33;70.18;100750.88;5064443;27;69169;-37
2021/05/25 11:56:13;;;;;;;18.60;16.63;;;;;;;29.38;70.28;100758.34;5061390;27;66068;-35
2021/05/25 11:58:54;;;;;;;26.63;16.67;;;;;;;29.39;70.22;100754.59;5063578;27;69069;-35
2021/05/25 12:01:39;;;;;;;20.48;16.40;;;;;;;29.36;70.20;100755.88;5064302;27;66336;-36
2021/05/25 12:04:10;;;;;;;18.70;16.65;;;;;;;29.29;70.34;100741.53;5067789;28;70386;-37